createdAt,value
2017-08-16T00:00:24.461Z,0
2017-08-16T00:01:24.166Z,0
2017-08-16T00:02:24.185Z,0
2017-08-16T00:03:24.489Z,0
2017-08-16T00:04:24.491Z,0
2017-08-16T00:05:24.501Z,0
2017-08-16T00:06:24.483Z,0
2017-08-16T00:07:24.504Z,0
2017-08-16T00:08:23.889Z,0
2017-08-16T00:09:24.197Z,0
2017-08-16T00:10:24.516Z,0
2017-08-16T00:11:24.231Z,0
2017-08-16T00:12:24.210Z,0
2017-08-16T00:13:24.525Z,0
2017-08-16T00:14:24.248Z,0
2017-08-16T00:15:24.225Z,0
2017-08-16T00:16:24.518Z,0
2017-08-16T00:17:24.225Z,0
2017-08-16T00:18:24.529Z,0
2017-08-16T00:19:24.236Z,0
2017-08-16T00:20:24.225Z,0
2017-08-16T00:21:24.534Z,0
2017-08-16T00:22:24.274Z,0
2017-08-16T00:23:24.551Z,0
2017-08-16T00:24:24.238Z,0
2017-08-16T00:25:24.242Z,0
2017-08-16T00:26:24.232Z,0
2017-08-16T00:27:24.255Z,0
2017-08-16T00:28:24.558Z,0
2017-08-16T00:29:24.568Z,0
2017-08-16T00:30:24.272Z,0
2017-08-16T00:31:24.571Z,0
2017-08-16T00:32:24.270Z,0
2017-08-16T00:33:24.267Z,0
2017-08-16T00:34:24.572Z,0
2017-08-16T00:35:24.575Z,0
2017-08-16T00:36:24.611Z,0
2017-08-16T00:37:24.298Z,0
2017-08-16T00:38:24.582Z,0
2017-08-16T00:39:24.593Z,0
2017-08-16T00:40:24.622Z,0
2017-08-16T00:41:24.002Z,0
2017-08-16T00:42:24.587Z,0
2017-08-16T00:43:24.628Z,0
2017-08-16T00:44:24.314Z,0
2017-08-16T00:45:25.900Z,0
2017-08-16T00:46:24.616Z,0
2017-08-16T00:47:24.343Z,0
2017-08-16T00:48:24.652Z,0
2017-08-16T00:49:24.334Z,0
2017-08-16T00:50:24.620Z,0
2017-08-16T00:51:24.621Z,0
2017-08-16T00:52:24.343Z,0
2017-08-16T00:53:24.652Z,0
2017-08-16T00:54:24.636Z,0
2017-08-16T00:55:24.044Z,0
2017-08-16T00:56:24.645Z,0
2017-08-16T00:57:24.629Z,0
2017-08-16T00:58:24.654Z,0
2017-08-16T00:59:24.349Z,0
2017-08-16T01:00:24.659Z,0
2017-08-16T01:01:24.666Z,0
2017-08-16T01:02:24.361Z,0
2017-08-16T01:03:24.645Z,0
2017-08-16T01:04:24.362Z,0
2017-08-16T01:05:24.364Z,0
2017-08-16T01:06:24.663Z,0
2017-08-16T01:07:24.364Z,0
2017-08-16T01:08:24.677Z,0
2017-08-16T01:09:24.682Z,0
2017-08-16T01:10:24.681Z,0
2017-08-16T01:11:24.391Z,0
2017-08-16T01:12:24.686Z,0
2017-08-16T01:13:24.685Z,0
2017-08-16T01:14:24.687Z,0
2017-08-16T01:15:26.540Z,0
2017-08-16T01:16:24.399Z,0
2017-08-16T01:17:24.686Z,0
2017-08-16T01:18:24.392Z,0
2017-08-16T01:19:24.698Z,0
2017-08-16T01:20:24.707Z,0
2017-08-16T01:21:24.729Z,0
2017-08-16T01:22:24.709Z,0
2017-08-16T01:23:24.714Z,0
2017-08-16T01:24:24.700Z,0
2017-08-16T01:25:24.723Z,0
2017-08-16T01:26:24.722Z,0
2017-08-16T01:27:24.720Z,0
2017-08-16T01:28:24.417Z,0
2017-08-16T01:29:24.420Z,0
2017-08-16T01:30:25.536Z,0
2017-08-16T01:31:24.747Z,0
2017-08-16T01:32:24.139Z,0
2017-08-16T01:33:24.735Z,0
2017-08-16T01:34:24.457Z,0
2017-08-16T01:35:24.732Z,0
2017-08-16T01:36:24.734Z,0
2017-08-16T01:37:24.749Z,0
2017-08-16T01:38:24.758Z,0
2017-08-16T01:39:24.750Z,0
2017-08-16T01:40:24.476Z,0
2017-08-16T01:41:24.765Z,0
2017-08-16T01:42:24.753Z,0
2017-08-16T01:43:24.778Z,0
2017-08-16T01:44:24.769Z,0
2017-08-16T01:45:25.036Z,0
2017-08-16T01:46:24.795Z,0
2017-08-16T01:47:24.780Z,0
2017-08-16T01:48:24.464Z,0
2017-08-16T01:49:24.783Z,0
2017-08-16T01:50:24.835Z,0
2017-08-16T01:51:24.767Z,0
2017-08-16T01:52:24.784Z,0
2017-08-16T01:53:24.785Z,0
2017-08-16T01:54:24.782Z,0
2017-08-16T01:55:24.772Z,0
2017-08-16T01:56:24.780Z,0
2017-08-16T01:57:24.785Z,0
2017-08-16T01:58:24.793Z,0
2017-08-16T01:59:24.528Z,0
2017-08-16T02:00:24.832Z,0
2017-08-16T02:01:24.505Z,0
2017-08-16T02:02:24.791Z,0
2017-08-16T02:03:24.804Z,0
2017-08-16T02:04:24.811Z,0
2017-08-16T02:05:24.805Z,0
2017-08-16T02:06:24.803Z,0
2017-08-16T02:07:24.814Z,0
2017-08-16T02:08:24.805Z,0
2017-08-16T02:09:24.804Z,0
2017-08-16T02:10:24.820Z,0
2017-08-16T02:11:24.820Z,0
2017-08-16T02:12:24.816Z,0
2017-08-16T02:13:24.509Z,0
2017-08-16T02:14:24.833Z,0
2017-08-16T02:15:26.524Z,0
2017-08-16T02:16:24.835Z,0
2017-08-16T02:17:24.820Z,0
2017-08-16T02:18:24.842Z,0
2017-08-16T02:19:24.833Z,0
2017-08-16T02:20:24.833Z,0
2017-08-16T02:21:24.833Z,0
2017-08-16T02:22:24.534Z,0
2017-08-16T02:23:24.835Z,0
2017-08-16T02:24:24.828Z,0
2017-08-16T02:25:24.829Z,0
2017-08-16T02:26:24.542Z,0
2017-08-16T02:27:24.835Z,0
2017-08-16T02:28:24.529Z,0
2017-08-16T02:29:24.545Z,0
2017-08-16T02:30:24.842Z,0
2017-08-16T02:31:24.847Z,0
2017-08-16T02:32:24.865Z,0
2017-08-16T02:33:24.845Z,0
2017-08-16T02:34:24.851Z,0
2017-08-16T02:35:24.850Z,0
2017-08-16T02:36:24.857Z,0
2017-08-16T02:37:24.860Z,0
2017-08-16T02:38:24.852Z,0
2017-08-16T02:39:24.849Z,0
2017-08-16T02:40:24.571Z,0
2017-08-16T02:41:24.562Z,0
2017-08-16T02:42:24.860Z,0
2017-08-16T02:43:24.861Z,0
2017-08-16T02:44:24.875Z,0
2017-08-16T02:45:24.867Z,0
2017-08-16T02:46:25.276Z,0
2017-08-16T02:47:24.562Z,0
2017-08-16T02:48:24.875Z,0
2017-08-16T02:49:24.879Z,0
2017-08-16T02:50:24.864Z,0
2017-08-16T02:51:24.877Z,0
2017-08-16T02:52:24.869Z,0
2017-08-16T02:53:24.871Z,0
2017-08-16T02:54:24.892Z,0
2017-08-16T02:55:24.891Z,0
2017-08-16T02:56:24.572Z,0
2017-08-16T02:57:24.584Z,0
2017-08-16T02:58:24.579Z,0
2017-08-16T02:59:24.895Z,0
2017-08-16T03:00:24.883Z,0
2017-08-16T03:01:24.634Z,0
2017-08-16T03:02:24.883Z,0
2017-08-16T03:03:24.609Z,0
2017-08-16T03:04:24.583Z,0
2017-08-16T03:05:24.598Z,0
2017-08-16T03:06:24.600Z,0
2017-08-16T03:07:24.600Z,0
2017-08-16T03:08:24.594Z,0
2017-08-16T03:09:24.909Z,0
2017-08-16T03:10:24.601Z,0
2017-08-16T03:11:24.602Z,0
2017-08-16T03:12:24.602Z,0
2017-08-16T03:13:24.610Z,0
2017-08-16T03:14:24.907Z,0
2017-08-16T03:15:24.909Z,0
2017-08-16T03:16:27.062Z,0
2017-08-16T03:17:24.920Z,0
2017-08-16T03:18:24.614Z,0
2017-08-16T03:19:24.914Z,0
2017-08-16T03:20:24.922Z,0
2017-08-16T03:21:24.625Z,0
2017-08-16T03:22:24.923Z,0
2017-08-16T03:23:24.922Z,0
2017-08-16T03:24:24.329Z,0
2017-08-16T03:25:24.949Z,0
2017-08-16T03:26:24.630Z,0
2017-08-16T03:27:24.944Z,0
2017-08-16T03:28:24.644Z,0
2017-08-16T03:29:24.952Z,0
2017-08-16T03:30:24.953Z,0
2017-08-16T03:31:25.195Z,0
2017-08-16T03:32:24.652Z,0
2017-08-16T03:33:24.950Z,0
2017-08-16T03:34:24.653Z,0
2017-08-16T03:35:24.953Z,0
2017-08-16T03:36:24.956Z,0
2017-08-16T03:37:24.976Z,0
2017-08-16T03:38:24.687Z,0
2017-08-16T03:39:24.972Z,0
2017-08-16T03:40:24.664Z,0
2017-08-16T03:41:24.967Z,0
2017-08-16T03:42:24.978Z,0
2017-08-16T03:43:24.971Z,0
2017-08-16T03:44:24.986Z,0
2017-08-16T03:45:24.677Z,0
2017-08-16T03:46:25.997Z,0
2017-08-16T03:47:25.006Z,0
2017-08-16T03:48:24.684Z,0
2017-08-16T03:49:24.688Z,0
2017-08-16T03:50:24.990Z,0
2017-08-16T03:51:25.017Z,4
2017-08-16T03:52:25.001Z,4
2017-08-16T03:53:25.003Z,4
2017-08-16T03:54:25.015Z,4
2017-08-16T03:55:24.707Z,4
2017-08-16T03:56:24.711Z,4
2017-08-16T03:57:25.023Z,4
2017-08-16T03:58:24.714Z,8
2017-08-16T03:59:24.716Z,8
2017-08-16T04:00:25.029Z,12
2017-08-16T04:01:24.722Z,12
2017-08-16T04:02:25.051Z,16
2017-08-16T04:03:25.027Z,16
2017-08-16T04:04:25.028Z,16
2017-08-16T04:05:24.729Z,20
2017-08-16T04:06:25.040Z,24
2017-08-16T04:07:25.046Z,28
2017-08-16T04:08:25.054Z,32
2017-08-16T04:09:24.747Z,36
2017-08-16T04:10:25.050Z,36
2017-08-16T04:11:25.052Z,40
2017-08-16T04:12:24.453Z,44
2017-08-16T04:13:25.053Z,52
2017-08-16T04:14:25.058Z,60
2017-08-16T04:15:25.059Z,68
2017-08-16T04:16:25.811Z,72
2017-08-16T04:17:24.461Z,80
2017-08-16T04:18:25.064Z,84
2017-08-16T04:19:24.766Z,88
2017-08-16T04:20:25.080Z,96
2017-08-16T04:21:25.079Z,108
2017-08-16T04:22:24.797Z,116
2017-08-16T04:23:24.773Z,132
2017-08-16T04:24:24.775Z,152
2017-08-16T04:25:24.790Z,172
2017-08-16T04:26:25.082Z,200
2017-08-16T04:27:25.092Z,224
2017-08-16T04:28:25.088Z,236
2017-08-16T04:29:25.112Z,232
2017-08-16T04:30:25.096Z,228
2017-08-16T04:31:24.499Z,224
2017-08-16T04:32:25.102Z,228
2017-08-16T04:33:25.115Z,240
2017-08-16T04:34:25.115Z,264
2017-08-16T04:35:25.122Z,288
2017-08-16T04:36:25.128Z,320
2017-08-16T04:37:25.628Z,356
2017-08-16T04:38:25.117Z,392
2017-08-16T04:39:25.115Z,432
2017-08-16T04:40:24.823Z,468
2017-08-16T04:41:24.838Z,508
2017-08-16T04:42:24.824Z,556
2017-08-16T04:43:25.132Z,608
2017-08-16T04:44:25.135Z,648
2017-08-16T04:45:25.148Z,680
2017-08-16T04:46:25.140Z,708
2017-08-16T04:47:27.199Z,724
2017-08-16T04:48:24.849Z,736
2017-08-16T04:49:25.143Z,756
2017-08-16T04:50:24.856Z,800
2017-08-16T04:51:25.179Z,832
2017-08-16T04:52:24.843Z,852
2017-08-16T04:53:24.876Z,884
2017-08-16T04:54:25.168Z,916
2017-08-16T04:55:24.870Z,932
2017-08-16T04:56:25.170Z,932
2017-08-16T04:57:25.976Z,924
2017-08-16T04:58:25.174Z,920
2017-08-16T04:59:25.174Z,936
2017-08-16T05:00:24.878Z,968
2017-08-16T05:01:25.179Z,1000
2017-08-16T05:02:25.189Z,1040
2017-08-16T05:03:25.182Z,1064
2017-08-16T05:04:25.184Z,1084
2017-08-16T05:05:24.891Z,1080
2017-08-16T05:06:25.193Z,1088
2017-08-16T05:07:25.199Z,1092
2017-08-16T05:08:25.196Z,1104
2017-08-16T05:09:24.897Z,1120
2017-08-16T05:10:25.216Z,1140
2017-08-16T05:11:24.917Z,1180
2017-08-16T05:12:25.205Z,1228
2017-08-16T05:13:25.208Z,1284
2017-08-16T05:14:25.210Z,1344
2017-08-16T05:15:25.222Z,1416
2017-08-16T05:16:25.218Z,1500
2017-08-16T05:17:25.474Z,1584
2017-08-16T05:18:24.925Z,1664
2017-08-16T05:19:25.229Z,1752
2017-08-16T05:20:25.234Z,1816
2017-08-16T05:21:25.227Z,1864
2017-08-16T05:22:25.229Z,1920
2017-08-16T05:23:25.233Z,1976
2017-08-16T05:24:25.260Z,2020
2017-08-16T05:25:24.950Z,2032
2017-08-16T05:26:25.248Z,2072
2017-08-16T05:27:25.250Z,2120
2017-08-16T05:28:24.963Z,2196
2017-08-16T05:29:25.251Z,2252
2017-08-16T05:30:24.965Z,2300
2017-08-16T05:31:25.271Z,2512
2017-08-16T05:32:25.274Z,2496
2017-08-16T05:33:25.266Z,2548
2017-08-16T05:34:25.264Z,2624
2017-08-16T05:35:24.969Z,2740
2017-08-16T05:36:24.975Z,2860
2017-08-16T05:37:25.275Z,2992
2017-08-16T05:38:25.281Z,3132
2017-08-16T05:39:24.996Z,3284
2017-08-16T05:40:25.279Z,3424
2017-08-16T05:41:24.999Z,3524
2017-08-16T05:42:24.986Z,3620
2017-08-16T05:43:25.289Z,3740
2017-08-16T05:44:25.289Z,4020
2017-08-16T05:45:25.004Z,4668
2017-08-16T05:46:25.315Z,4752
2017-08-16T05:47:25.317Z,4372
2017-08-16T05:48:25.307Z,4576
2017-08-16T05:49:25.311Z,5504
2017-08-16T05:50:25.026Z,5708
2017-08-16T05:51:25.316Z,5744
2017-08-16T05:52:25.037Z,5748
2017-08-16T05:53:25.335Z,5700
2017-08-16T05:54:25.332Z,5144
2017-08-16T05:55:25.337Z,4944
2017-08-16T05:56:25.335Z,4868
2017-08-16T05:57:25.347Z,4960
2017-08-16T05:58:25.042Z,5076
2017-08-16T05:59:25.347Z,4980
2017-08-16T06:00:25.070Z,4924
2017-08-16T06:01:25.357Z,4864
2017-08-16T06:02:25.069Z,4796
2017-08-16T06:03:25.362Z,4716
2017-08-16T06:04:25.377Z,4620
2017-08-16T06:05:25.373Z,4496
2017-08-16T06:06:25.376Z,4380
2017-08-16T06:07:25.380Z,4316
2017-08-16T06:08:25.384Z,4284
2017-08-16T06:09:25.087Z,4248
2017-08-16T06:10:25.388Z,4256
2017-08-16T06:11:25.097Z,4304
2017-08-16T06:12:25.397Z,4332
2017-08-16T06:13:25.405Z,4336
2017-08-16T06:14:25.410Z,4436
2017-08-16T06:15:25.414Z,4580
2017-08-16T06:16:25.412Z,4624
2017-08-16T06:17:25.426Z,4568
2017-08-16T06:18:25.889Z,4624
2017-08-16T06:19:25.447Z,4800
2017-08-16T06:20:25.446Z,5048
2017-08-16T06:21:25.153Z,5280
2017-08-16T06:22:25.452Z,5432
2017-08-16T06:23:25.445Z,5488
2017-08-16T06:24:25.450Z,5460
2017-08-16T06:25:25.451Z,5416
2017-08-16T06:26:25.159Z,5324
2017-08-16T06:27:25.469Z,5236
2017-08-16T06:28:25.477Z,5108
2017-08-16T06:29:25.466Z,5000
2017-08-16T06:30:25.494Z,4924
2017-08-16T06:31:25.193Z,4896
2017-08-16T06:32:25.496Z,4892
2017-08-16T06:33:26.986Z,4912
2017-08-16T06:34:25.495Z,4920
2017-08-16T06:35:25.497Z,4992
2017-08-16T06:36:25.514Z,5124
2017-08-16T06:37:25.515Z,5416
2017-08-16T06:38:25.514Z,5736
2017-08-16T06:39:25.510Z,6152
2017-08-16T06:40:25.514Z,6576
2017-08-16T06:41:25.528Z,6904
2017-08-16T06:42:25.527Z,7092
2017-08-16T06:43:24.961Z,7152
2017-08-16T06:44:25.534Z,7140
2017-08-16T06:45:25.543Z,7120
2017-08-16T06:46:25.545Z,7152
2017-08-16T06:47:25.557Z,7208
2017-08-16T06:48:25.549Z,7260
2017-08-16T06:49:25.546Z,7744
2017-08-16T06:50:25.557Z,8912
2017-08-16T06:51:24.955Z,7208
2017-08-16T06:52:25.561Z,7168
2017-08-16T06:53:25.569Z,6412
2017-08-16T06:54:25.578Z,8168
2017-08-16T06:55:25.583Z,9752
2017-08-16T06:56:25.292Z,5508
2017-08-16T06:57:25.590Z,5372
2017-08-16T06:58:25.593Z,5544
2017-08-16T06:59:25.297Z,6164
2017-08-16T07:00:25.630Z,13580
2017-08-16T07:01:25.307Z,14800
2017-08-16T07:02:25.611Z,12284
2017-08-16T07:03:25.342Z,5980
2017-08-16T07:04:25.617Z,5860
2017-08-16T07:05:25.625Z,9348
2017-08-16T07:06:25.627Z,5416
2017-08-16T07:07:25.638Z,5464
2017-08-16T07:08:25.637Z,4964
2017-08-16T07:09:25.645Z,4780
2017-08-16T07:10:25.650Z,4780
2017-08-16T07:11:25.657Z,4916
2017-08-16T07:12:25.659Z,5528
2017-08-16T07:13:25.675Z,9620
2017-08-16T07:14:25.674Z,14508
2017-08-16T07:15:25.370Z,12524
2017-08-16T07:16:25.377Z,10868
2017-08-16T07:17:25.388Z,13860
2017-08-16T07:18:25.702Z,14488
2017-08-16T07:19:26.203Z,14276
2017-08-16T07:20:25.398Z,14176
2017-08-16T07:21:25.712Z,13596
2017-08-16T07:22:25.717Z,14184
2017-08-16T07:23:25.725Z,13900
2017-08-16T07:24:25.740Z,14100
2017-08-16T07:25:25.730Z,14052
2017-08-16T07:26:25.736Z,13952
2017-08-16T07:27:25.474Z,14168
2017-08-16T07:28:25.765Z,14636
2017-08-16T07:29:25.483Z,14928
2017-08-16T07:30:25.774Z,15444
2017-08-16T07:31:24.876Z,15416
2017-08-16T07:32:25.181Z,14240
2017-08-16T07:33:25.811Z,11368
2017-08-16T07:34:25.796Z,12096
2017-08-16T07:35:25.826Z,11396
2017-08-16T07:36:25.240Z,13152
2017-08-16T07:37:25.823Z,12736
2017-08-16T07:38:25.854Z,13352
2017-08-16T07:39:25.840Z,10212
2017-08-16T07:40:25.850Z,11568
2017-08-16T07:41:25.872Z,9588
2017-08-16T07:42:25.585Z,13648
2017-08-16T07:43:25.877Z,13144
2017-08-16T07:44:25.285Z,10368
2017-08-16T07:45:25.589Z,8196
2017-08-16T07:46:25.609Z,7692
2017-08-16T07:47:25.308Z,7208
2017-08-16T07:48:25.608Z,7232
2017-08-16T07:49:30.328Z,8736
2017-08-16T07:50:25.628Z,12592
2017-08-16T07:51:25.340Z,13220
2017-08-16T07:52:25.648Z,13652
2017-08-16T07:53:25.653Z,13464
2017-08-16T07:54:25.949Z,13232
2017-08-16T07:55:25.960Z,11216
2017-08-16T07:56:25.962Z,11664
2017-08-16T07:57:25.988Z,10804
2017-08-16T07:58:25.692Z,10444
2017-08-16T07:59:25.690Z,14508
2017-08-16T08:00:26.004Z,15420
2017-08-16T08:01:26.016Z,13696
2017-08-16T08:02:26.022Z,11972
2017-08-16T08:03:26.024Z,11060
2017-08-16T08:04:26.024Z,11152
2017-08-16T08:05:26.033Z,11564
2017-08-16T08:06:26.042Z,10716
2017-08-16T08:07:25.750Z,10012
2017-08-16T08:08:25.748Z,10360
2017-08-16T08:09:25.777Z,10504
2017-08-16T08:10:25.799Z,11508
2017-08-16T08:11:26.077Z,10208
2017-08-16T08:12:26.081Z,12060
2017-08-16T08:13:26.108Z,13796
2017-08-16T08:14:26.098Z,14924
2017-08-16T08:15:25.806Z,15500
2017-08-16T08:16:26.127Z,15260
2017-08-16T08:17:25.834Z,11872
2017-08-16T08:18:25.822Z,11024
2017-08-16T08:19:29.040Z,11228
2017-08-16T08:20:26.138Z,11096
2017-08-16T08:21:25.847Z,14092
2017-08-16T08:22:25.257Z,17184
2017-08-16T08:23:25.861Z,16800
2017-08-16T08:24:26.187Z,12612
2017-08-16T08:25:26.184Z,12076
2017-08-16T08:26:26.185Z,12388
2017-08-16T08:27:26.186Z,12084
2017-08-16T08:28:25.911Z,11736
2017-08-16T08:29:26.207Z,13720
2017-08-16T08:30:25.907Z,13836
2017-08-16T08:31:26.223Z,13828
2017-08-16T08:32:25.619Z,12604
2017-08-16T08:33:25.942Z,11792
2017-08-16T08:34:26.245Z,11932
2017-08-16T08:35:26.444Z,12212
2017-08-16T08:36:26.279Z,11644
2017-08-16T08:37:25.973Z,12012
2017-08-16T08:38:26.198Z,12396
2017-08-16T08:39:26.137Z,12360
2017-08-16T08:40:26.336Z,12160
2017-08-16T08:41:25.850Z,12272
2017-08-16T08:42:26.421Z,12512
2017-08-16T08:43:26.149Z,12552
2017-08-16T08:44:26.335Z,12172
2017-08-16T08:45:27.990Z,12172
2017-08-16T08:46:26.816Z,12676
2017-08-16T08:47:26.888Z,12324
2017-08-16T08:48:26.420Z,14156
2017-08-16T08:49:26.881Z,16512
2017-08-16T08:50:31.037Z,12976
2017-08-16T08:51:27.332Z,13680
2017-08-16T08:52:26.881Z,15432
2017-08-16T08:53:26.989Z,12144
2017-08-16T08:54:26.998Z,12288
2017-08-16T08:55:28.559Z,11316
2017-08-16T08:56:27.284Z,11664
2017-08-16T08:57:26.679Z,11416
2017-08-16T08:58:27.115Z,11696
2017-08-16T08:59:26.354Z,11932
2017-08-16T09:00:27.908Z,12124
2017-08-16T09:01:27.179Z,12232
2017-08-16T09:02:27.278Z,12264
2017-08-16T09:03:26.419Z,12424
2017-08-16T09:04:26.726Z,12792
2017-08-16T09:05:27.005Z,13684
2017-08-16T09:06:27.821Z,13492
2017-08-16T09:07:27.417Z,12864
2017-08-16T09:08:27.200Z,12336
2017-08-16T09:09:26.470Z,12192
2017-08-16T09:10:26.182Z,12236
2017-08-16T09:11:27.560Z,12128
2017-08-16T09:12:26.239Z,11908
2017-08-16T09:13:25.623Z,11688
2017-08-16T09:14:25.628Z,11396
2017-08-16T09:15:26.512Z,11176
2017-08-16T09:16:26.241Z,11152
2017-08-16T09:17:26.233Z,11680
2017-08-16T09:18:26.534Z,10916
2017-08-16T09:19:26.532Z,11092
2017-08-16T09:20:26.539Z,11316
2017-08-16T09:21:28.607Z,11520
2017-08-16T09:22:26.568Z,11680
2017-08-16T09:23:26.569Z,11872
2017-08-16T09:24:26.271Z,12032
2017-08-16T09:25:26.273Z,12356
2017-08-16T09:26:26.570Z,12432
2017-08-16T09:27:26.594Z,12276
2017-08-16T09:28:26.680Z,11924
2017-08-16T09:29:26.612Z,11620
2017-08-16T09:30:26.611Z,11616
2017-08-16T09:31:26.304Z,10916
2017-08-16T09:32:26.622Z,10592
2017-08-16T09:33:26.626Z,10160
2017-08-16T09:34:26.339Z,9972
2017-08-16T09:35:26.334Z,9804
2017-08-16T09:36:26.393Z,9876
2017-08-16T09:37:26.646Z,13080
2017-08-16T09:38:26.652Z,12288
2017-08-16T09:39:26.672Z,10364
2017-08-16T09:40:26.065Z,11948
2017-08-16T09:41:26.716Z,10440
2017-08-16T09:42:26.676Z,10192
2017-08-16T09:43:26.682Z,12288
2017-08-16T09:44:26.686Z,11076
2017-08-16T09:45:26.690Z,14240
2017-08-16T09:46:26.713Z,11396
2017-08-16T09:47:26.709Z,12040
2017-08-16T09:48:26.138Z,14900
2017-08-16T09:49:26.720Z,12540
2017-08-16T09:50:26.433Z,14632
2017-08-16T09:51:32.547Z,14724
2017-08-16T09:52:26.745Z,14884
2017-08-16T09:53:26.744Z,14268
2017-08-16T09:54:26.754Z,13628
2017-08-16T09:55:26.456Z,14288
2017-08-16T09:56:26.773Z,13972
2017-08-16T09:57:26.780Z,13640
2017-08-16T09:58:26.781Z,13604
2017-08-16T09:59:26.510Z,12720
2017-08-16T10:00:26.786Z,13312
2017-08-16T10:01:26.496Z,10860
2017-08-16T10:02:26.195Z,9884
2017-08-16T10:03:26.834Z,12308
2017-08-16T10:04:26.828Z,12908
2017-08-16T10:05:26.247Z,12876
2017-08-16T10:06:26.524Z,9936
2017-08-16T10:07:26.529Z,10116
2017-08-16T10:08:28.951Z,11144
2017-08-16T10:09:26.546Z,11104
2017-08-16T10:10:26.854Z,12092
2017-08-16T10:11:26.857Z,12368
2017-08-16T10:12:26.873Z,12436
2017-08-16T10:13:26.572Z,12980
2017-08-16T10:14:26.588Z,13224
2017-08-16T10:15:26.583Z,12404
2017-08-16T10:16:26.891Z,12684
2017-08-16T10:17:26.898Z,12872
2017-08-16T10:18:26.896Z,12764
2017-08-16T10:19:26.913Z,12976
2017-08-16T10:20:26.913Z,12192
2017-08-16T10:21:26.610Z,12836
2017-08-16T10:22:28.529Z,12620
2017-08-16T10:23:26.934Z,12288
2017-08-16T10:24:26.633Z,11672
2017-08-16T10:25:26.641Z,11300
2017-08-16T10:26:26.642Z,10152
2017-08-16T10:27:26.370Z,10272
2017-08-16T10:28:26.661Z,10040
2017-08-16T10:29:26.960Z,11072
2017-08-16T10:30:26.987Z,11088
2017-08-16T10:31:26.385Z,11292
2017-08-16T10:32:27.004Z,11384
2017-08-16T10:33:26.987Z,11536
2017-08-16T10:34:26.991Z,11516
2017-08-16T10:35:26.715Z,11828
2017-08-16T10:36:26.419Z,12048
2017-08-16T10:37:27.074Z,12600
2017-08-16T10:38:27.019Z,12580
2017-08-16T10:39:27.026Z,12052
2017-08-16T10:40:27.028Z,12688
2017-08-16T10:41:26.753Z,12384
2017-08-16T10:42:27.049Z,12648
2017-08-16T10:43:27.049Z,12744
2017-08-16T10:44:27.065Z,12864
2017-08-16T10:45:27.069Z,12968
2017-08-16T10:46:27.106Z,13772
2017-08-16T10:47:27.076Z,13016
2017-08-16T10:48:26.785Z,12884
2017-08-16T10:49:27.084Z,12436
2017-08-16T10:50:27.102Z,12120
2017-08-16T10:51:26.499Z,12000
2017-08-16T10:52:29.158Z,12084
2017-08-16T10:53:27.132Z,12256
2017-08-16T10:54:26.819Z,12620
2017-08-16T10:55:27.126Z,12900
2017-08-16T10:56:26.837Z,13104
2017-08-16T10:57:26.880Z,13292
2017-08-16T10:58:26.861Z,13288
2017-08-16T10:59:27.160Z,13160
2017-08-16T11:00:26.859Z,13048
2017-08-16T11:01:26.864Z,12964
2017-08-16T11:02:27.177Z,12924
2017-08-16T11:03:26.890Z,12752
2017-08-16T11:04:26.893Z,12716
2017-08-16T11:05:26.892Z,12732
2017-08-16T11:06:27.213Z,12700
2017-08-16T11:07:27.221Z,12704
2017-08-16T11:08:26.646Z,12720
2017-08-16T11:09:27.219Z,12680
2017-08-16T11:10:27.221Z,12528
2017-08-16T11:11:27.225Z,12316
2017-08-16T11:12:26.945Z,12184
2017-08-16T11:13:27.246Z,12128
2017-08-16T11:14:26.962Z,12252
2017-08-16T11:15:27.258Z,12800
2017-08-16T11:16:27.268Z,13056
2017-08-16T11:17:27.279Z,13268
2017-08-16T11:18:27.275Z,14440
2017-08-16T11:19:27.284Z,13944
2017-08-16T11:20:27.290Z,14228
2017-08-16T11:21:27.005Z,14960
2017-08-16T11:22:27.760Z,15028
2017-08-16T11:23:26.843Z,13500
2017-08-16T11:24:27.024Z,12340
2017-08-16T11:25:27.046Z,11808
2017-08-16T11:26:27.328Z,11512
2017-08-16T11:27:26.754Z,11016
2017-08-16T11:28:27.342Z,10532
2017-08-16T11:29:27.370Z,10080
2017-08-16T11:30:27.067Z,9684
2017-08-16T11:31:27.381Z,9432
2017-08-16T11:32:27.090Z,9200
2017-08-16T11:33:27.395Z,8756
2017-08-16T11:34:26.799Z,8696
2017-08-16T11:35:27.419Z,8772
2017-08-16T11:36:27.393Z,8876
2017-08-16T11:37:27.426Z,9792
2017-08-16T11:38:27.425Z,10808
2017-08-16T11:39:27.169Z,10704
2017-08-16T11:40:27.459Z,10684
2017-08-16T11:41:27.460Z,10900
2017-08-16T11:42:27.156Z,10936
2017-08-16T11:43:27.480Z,10936
2017-08-16T11:44:27.467Z,10992
2017-08-16T11:45:26.961Z,11008
2017-08-16T11:46:27.464Z,11152
2017-08-16T11:47:27.206Z,11088
2017-08-16T11:48:27.187Z,10880
2017-08-16T11:49:27.192Z,10752
2017-08-16T11:50:26.612Z,10376
2017-08-16T11:51:27.223Z,10260
2017-08-16T11:52:27.510Z,10208
2017-08-16T11:53:27.723Z,9720
2017-08-16T11:54:27.247Z,9064
2017-08-16T11:55:27.311Z,8536
2017-08-16T11:56:27.295Z,8576
2017-08-16T11:57:27.229Z,8552
2017-08-16T11:58:27.553Z,8480
2017-08-16T11:59:27.278Z,8276
2017-08-16T12:00:27.247Z,8196
2017-08-16T12:01:26.953Z,7812
2017-08-16T12:02:27.555Z,7520
2017-08-16T12:03:27.272Z,7292
2017-08-16T12:04:27.292Z,7104
2017-08-16T12:05:27.581Z,6200
2017-08-16T12:06:26.977Z,6164
2017-08-16T12:07:27.282Z,7156
2017-08-16T12:08:30.747Z,6348
2017-08-16T12:09:27.000Z,5976
2017-08-16T12:10:27.016Z,5960
2017-08-16T12:11:27.613Z,5900
2017-08-16T12:12:27.638Z,6000
2017-08-16T12:13:27.626Z,6068
2017-08-16T12:14:27.625Z,6132
2017-08-16T12:15:27.327Z,6308
2017-08-16T12:16:27.352Z,6852
2017-08-16T12:17:26.744Z,6588
2017-08-16T12:18:27.647Z,6604
2017-08-16T12:19:27.655Z,6576
2017-08-16T12:20:27.669Z,6636
2017-08-16T12:21:27.671Z,6688
2017-08-16T12:22:27.374Z,8216
2017-08-16T12:23:27.289Z,8696
2017-08-16T12:24:27.697Z,9076
2017-08-16T12:25:27.404Z,9348
2017-08-16T12:26:27.699Z,9424
2017-08-16T12:27:27.403Z,9656
2017-08-16T12:28:27.620Z,9176
2017-08-16T12:29:27.427Z,9488
2017-08-16T12:30:27.432Z,9664
2017-08-16T12:31:27.418Z,9564
2017-08-16T12:32:27.737Z,9280
2017-08-16T12:33:27.264Z,9048
2017-08-16T12:34:27.436Z,8032
2017-08-16T12:35:27.774Z,8200
2017-08-16T12:36:27.639Z,8244
2017-08-16T12:37:27.797Z,8084
2017-08-16T12:38:27.865Z,8296
2017-08-16T12:39:27.890Z,7784
2017-08-16T12:40:27.174Z,8276
2017-08-16T12:41:27.806Z,8304
2017-08-16T12:42:27.203Z,7980
2017-08-16T12:43:27.488Z,7032
2017-08-16T12:44:27.197Z,7680
2017-08-16T12:45:27.806Z,7436
2017-08-16T12:46:27.834Z,6780
2017-08-16T12:47:27.817Z,7076
2017-08-16T12:48:26.916Z,6932
2017-08-16T12:49:27.217Z,7140
2017-08-16T12:50:27.848Z,6904
2017-08-16T12:51:27.832Z,7208
2017-08-16T12:52:27.290Z,7868
2017-08-16T12:53:28.817Z,8044
2017-08-16T12:54:27.318Z,8140
2017-08-16T12:55:27.858Z,8204
2017-08-16T12:56:28.004Z,8324
2017-08-16T12:57:27.977Z,8316
2017-08-16T12:58:27.879Z,8368
2017-08-16T12:59:27.272Z,8316
2017-08-16T13:00:27.879Z,8404
2017-08-16T13:01:27.592Z,8360
2017-08-16T13:02:27.287Z,8312
2017-08-16T13:03:27.606Z,8256
2017-08-16T13:04:27.602Z,8348
2017-08-16T13:05:27.303Z,7624
2017-08-16T13:06:27.636Z,8252
2017-08-16T13:07:27.726Z,8244
2017-08-16T13:08:28.074Z,8252
2017-08-16T13:09:27.933Z,8172
2017-08-16T13:10:27.944Z,8228
2017-08-16T13:11:27.423Z,8228
2017-08-16T13:12:27.947Z,8232
2017-08-16T13:13:27.954Z,8324
2017-08-16T13:14:27.962Z,8192
2017-08-16T13:15:29.662Z,8228
2017-08-16T13:16:29.439Z,8232
2017-08-16T13:17:27.671Z,8264
2017-08-16T13:18:28.044Z,8340
2017-08-16T13:19:27.451Z,8480
2017-08-16T13:20:28.040Z,8848
2017-08-16T13:21:28.041Z,8876
2017-08-16T13:22:27.410Z,8560
2017-08-16T13:23:28.010Z,8560
2017-08-16T13:24:32.617Z,8376
2017-08-16T13:25:27.935Z,9264
2017-08-16T13:26:27.857Z,8984
2017-08-16T13:27:27.738Z,9136
2017-08-16T13:28:27.773Z,9912
2017-08-16T13:29:27.794Z,9860
2017-08-16T13:30:28.181Z,9708
2017-08-16T13:31:28.070Z,9692
2017-08-16T13:32:28.144Z,9108
2017-08-16T13:33:27.875Z,8692
2017-08-16T13:34:28.082Z,8460
2017-08-16T13:35:27.488Z,8728
2017-08-16T13:36:27.775Z,8712